Weather History for KJYR - May, 2014

Change the Weather History Date:

Saturday, May 10, 2014

  Actual Average Record
Temperature  
Mean Temperature 68 °F -  
Max Temperature 82 °F 72 °F 94 °F (1962)
Min Temperature 53 °F 49 °F 30 °F (1981)
Cooling Degree Days 2    
Growing Degree Days 18 (Base 50)    
Moisture  
Dew Point 39 °F    
Average Humidity 40    
Maximum Humidity 63    
Minimum Humidity 16    
Precipitation  
Precipitation 0.00 in - - ()
Sea Level Pressure  
Sea Level Pressure 29.75 in    
Wind  
Wind Speed 11 mph (SW)    
Max Wind Speed 24 mph    
Max Gust Speed 31 mph    
Visibility 10 miles    
Events      
Averages and records for this station are not official NWS values.
T = Trace of Precipitation, MM = Missing Value Source: NWS Daily Summary

Daily Weather History Graph

Daily Weather History Graph

Search for Another Location

Airport or City:

Trip Planner

Search our weather history database for the weather conditions in past years. The results will help you decide how hot, cold, wet, or windy it might be!

Date:

Astronomy

May. 10, 2014 Rise Set
Actual Time 6:18 AM CDT 8:36 PM CDT
Civil Twilight 5:47 AM CDT 9:07 PM CDT
Nautical Twilight 5:09 AM CDT 9:45 PM CDT
Astronomical Twilight 4:27 AM CDT 10:27 PM CDT
Moon 4:31 PM CDT (5/10) 3:53 AM CDT (5/10)
Length of Visible Light 15h 19m
Length of Day
14h 18m
Waxing Gibbous, 82% of the Moon is Illuminated
May 10
Waxing Gibbous
May 14
Full
May 21
Last Quarter
May 28
New
Jun 5
First Quarter

Hourly Weather History & Observations

Time (CDT) Temp. Dew Point Humidity Pressure Visibility Wind Dir Wind Speed Gust Speed Precip Events Conditions
12:15 AM 60.8 °F 41.0 °F 48% 29.79 in 10.0 mi SSE 9.2 mph - N/A   Partly Cloudy
12:35 AM 60.8 °F 41.0 °F 48% 29.79 in 10.0 mi SSE 10.4 mph - N/A   Clear
12:55 AM 59.0 °F 41.0 °F 51% 29.79 in 10.0 mi SSE 10.4 mph - N/A   Partly Cloudy
1:15 AM 59.0 °F 41.0 °F 51% 29.79 in 10.0 mi SSE 8.1 mph - N/A   Partly Cloudy
1:35 AM 59.0 °F 41.0 °F 51% 29.79 in 10.0 mi SSE 8.1 mph - N/A   Mostly Cloudy
1:55 AM 59.0 °F 41.0 °F 51% 29.79 in 10.0 mi SSE 9.2 mph - N/A   Overcast
2:15 AM 59.0 °F 41.0 °F 51% 29.78 in 10.0 mi SSE 9.2 mph - N/A   Overcast
2:35 AM 59.0 °F 41.0 °F 51% 29.78 in 10.0 mi SSE 5.8 mph - N/A   Mostly Cloudy
2:55 AM 59.0 °F 41.0 °F 51% 29.77 in 10.0 mi SSE 6.9 mph - N/A   Partly Cloudy
3:15 AM 59.0 °F 41.0 °F 51% 29.77 in 10.0 mi SSE 8.1 mph - N/A   Partly Cloudy
3:35 AM 57.2 °F 42.8 °F 59% 29.77 in 10.0 mi South 4.6 mph - N/A   Partly Cloudy
3:55 AM 57.2 °F 42.8 °F 59% 29.78 in 10.0 mi South 10.4 mph - N/A   Mostly Cloudy
4:15 AM 59.0 °F 42.8 °F 55% 29.78 in 10.0 mi SSW 11.5 mph - N/A   Mostly Cloudy
4:35 AM 59.0 °F 44.6 °F 59% 29.78 in 10.0 mi SSW 10.4 mph - N/A   Scattered Clouds
4:55 AM 59.0 °F 44.6 °F 59% 29.77 in 10.0 mi South 12.7 mph - N/A   Mostly Cloudy
5:15 AM 57.2 °F 44.6 °F 63% 29.77 in 10.0 mi South 10.4 mph - N/A   Mostly Cloudy
5:35 AM 57.2 °F 44.6 °F 63% 29.77 in 10.0 mi South 9.2 mph - N/A   Partly Cloudy
5:55 AM 57.2 °F 44.6 °F 63% 29.76 in 10.0 mi South 9.2 mph - N/A   Scattered Clouds
6:15 AM 57.2 °F 44.6 °F 63% 29.77 in 10.0 mi South 8.1 mph - N/A   Mostly Cloudy
6:35 AM 57.2 °F 44.6 °F 63% 29.77 in 10.0 mi South 10.4 mph - N/A   Scattered Clouds
6:55 AM 57.2 °F 44.6 °F 63% 29.77 in 10.0 mi South 11.5 mph - N/A   Partly Cloudy
7:15 AM 57.2 °F 44.6 °F 63% 29.77 in 10.0 mi South 11.5 mph - N/A   Clear
7:35 AM 57.2 °F 44.6 °F 63% 29.78 in 10.0 mi South 11.5 mph - N/A   Partly Cloudy
7:55 AM 59.0 °F 46.4 °F 63% 29.78 in 10.0 mi South 11.5 mph - N/A   Partly Cloudy
8:15 AM 59.0 °F 46.4 °F 63% 29.78 in 10.0 mi South 16.1 mph 20.7 mph N/A   Clear
8:35 AM 59.0 °F 46.4 °F 63% 29.78 in 10.0 mi South 15.0 mph - N/A   Clear
8:55 AM 59.0 °F 46.4 °F 63% 29.77 in 10.0 mi South 15.0 mph - N/A   Clear
9:15 AM 64.4 °F 48.2 °F 56% 29.76 in 10.0 mi South 20.7 mph 26.5 mph N/A   Clear
9:35 AM 68.0 °F 50.0 °F 52% 29.76 in 10.0 mi SSW 23.0 mph 29.9 mph N/A   Clear
9:55 AM 69.8 °F 50.0 °F 49% 29.75 in 10.0 mi SSW 21.9 mph 29.9 mph N/A   Clear
10:15 AM 73.4 °F 50.0 °F 44% 29.75 in 10.0 mi SW 20.7 mph 29.9 mph N/A   Clear
10:35 AM 73.4 °F 50.0 °F 44% 29.75 in 10.0 mi WSW 20.7 mph 27.6 mph N/A   Clear
10:55 AM 75.2 °F 46.4 °F 36% 29.74 in 10.0 mi SW 15.0 mph 24.2 mph N/A   Clear
11:15 AM 75.2 °F 42.8 °F 31% 29.75 in 10.0 mi WSW 12.7 mph - N/A   Clear
11:35 AM 77.0 °F 41.0 °F 28% 29.74 in 10.0 mi WSW 17.3 mph 23.0 mph N/A   Clear
11:55 AM 75.2 °F 39.2 °F 27% 29.74 in 10.0 mi West 11.5 mph 18.4 mph N/A   Clear
12:15 PM 77.0 °F 39.2 °F 26% 29.74 in 10.0 mi WSW 11.5 mph 21.9 mph N/A   Clear
12:35 PM 77.0 °F 39.2 °F 26% 29.74 in 10.0 mi WSW 12.7 mph 20.7 mph N/A   Clear
12:55 PM 80.6 °F 37.4 °F 21% 29.73 in 10.0 mi SW 13.8 mph 26.5 mph N/A   Clear
1:15 PM 78.8 °F 35.6 °F 21% 29.73 in 10.0 mi West 17.3 mph 21.9 mph N/A   Clear
1:35 PM 80.6 °F 32.0 °F 17% 29.72 in 10.0 mi West 23.0 mph 27.6 mph N/A   Clear
1:55 PM 82.4 °F 33.8 °F 17% 29.71 in 10.0 mi WSW 24.2 mph 28.8 mph N/A   Clear
2:15 PM 82.4 °F 32.0 °F 16% 29.72 in 10.0 mi West 16.1 mph 26.5 mph N/A   Clear
2:35 PM 80.6 °F 32.0 °F 17% 29.72 in 10.0 mi West 18.4 mph 29.9 mph N/A   Clear
2:55 PM 80.6 °F 32.0 °F 17% 29.71 in 10.0 mi West 21.9 mph 28.8 mph N/A   Clear
3:15 PM 82.4 °F 33.8 °F 17% 29.72 in 10.0 mi WSW 15.0 mph 31.1 mph N/A   Clear
3:55 PM 82.4 °F 32.0 °F 16% 29.72 in 10.0 mi WSW 17.3 mph 31.1 mph N/A   Clear
4:15 PM 80.6 °F 30.2 °F 16% 29.71 in 10.0 mi West 16.1 mph 23.0 mph N/A   Clear
4:35 PM 78.8 °F 32.0 °F 18% 29.70 in 10.0 mi West 18.4 mph 23.0 mph N/A   Clear
4:55 PM 80.6 °F 32.0 °F 17% 29.70 in 10.0 mi WNW 13.8 mph 23.0 mph N/A   Clear
5:15 PM 80.6 °F 32.0 °F 17% 29.71 in 10.0 mi West 16.1 mph 24.2 mph N/A   Clear
5:35 PM 78.8 °F 32.0 °F 18% 29.71 in 10.0 mi West 17.3 mph - N/A   Clear
5:55 PM 77.0 °F 30.2 °F 18% 29.72 in 10.0 mi WNW 16.1 mph - N/A   Clear
6:15 PM 77.0 °F 32.0 °F 19% 29.72 in 10.0 mi WNW 13.8 mph - N/A   Clear
6:35 PM 77.0 °F 32.0 °F 19% 29.72 in 10.0 mi West 9.2 mph - N/A   Clear
6:55 PM 77.0 °F 32.0 °F 19% 29.72 in 10.0 mi West 8.1 mph - N/A   Clear
7:15 PM 75.2 °F 33.8 °F 22% 29.72 in 10.0 mi West 6.9 mph - N/A   Clear
7:35 PM 75.2 °F 35.6 °F 24% 29.72 in 10.0 mi NNW 5.8 mph - N/A   Clear
7:55 PM 73.4 °F 35.6 °F 25% 29.72 in 10.0 mi NNW 3.5 mph - N/A   Clear
8:15 PM 71.6 °F 37.4 °F 29% 29.72 in 10.0 mi North 4.6 mph - N/A   Clear
8:35 PM 71.6 °F 35.6 °F 27% 29.73 in 10.0 mi NNW 3.5 mph - N/A   Clear
8:55 PM 68.0 °F 35.6 °F 30% 29.74 in 10.0 mi North 3.5 mph - N/A   Clear
9:15 PM 66.2 °F 33.8 °F 30% 29.75 in 10.0 mi North 3.5 mph - N/A   Clear
9:35 PM 66.2 °F 35.6 °F 32% 29.76 in 10.0 mi Calm Calm - N/A   Clear
9:55 PM 66.2 °F 35.6 °F 32% 29.77 in 10.0 mi Calm Calm - N/A   Clear
10:15 PM 64.4 °F 35.6 °F 34% 29.78 in 10.0 mi North - - N/A   Clear
10:35 PM 60.8 °F 37.4 °F 42% 29.78 in 10.0 mi NNE 4.6 mph - N/A   Clear
10:55 PM 57.2 °F 37.4 °F 48% 29.79 in 10.0 mi NNE 5.8 mph - N/A   Clear
11:15 PM 55.4 °F 37.4 °F 51% 29.79 in 10.0 mi NE 8.1 mph - N/A   Clear
11:35 PM 53.6 °F 39.2 °F 58% 29.78 in 10.0 mi NE 9.2 mph - N/A   Clear
11:55 PM 55.4 °F 39.2 °F 54% 29.77 in 10.0 mi NE 10.4 mph - N/A   Clear